Time;durP1;ratioP1;P1;durP2;ratioP2;P2;SDS_P1;SDS_P2;PMS_P1;PMS_P2;Temp;Humidity;BMP_temperature;BMP_pressure;BME280_temperature;BME280_humidity;BME280_pressure;Samples;Min_cycle;Max_cycle;Signal;HPM_P1;HPM_P2
2023/06/06 00:00:30;;;;;;;4.47;2.80;;;9.60;99.90;;;;;;4868029;29;20044;-92
2023/06/06 00:02:56;;;;;;;4.30;2.75;;;9.50;99.90;;;;;;4871526;29;20035;-92
2023/06/06 00:05:25;;;;;;;3.88;2.70;;;9.40;99.90;;;;;;4872844;29;20176;-92
2023/06/06 00:07:52;;;;;;;5.68;3.00;;;9.40;99.90;;;;;;4890365;29;20043;-92
2023/06/06 00:10:18;;;;;;;4.88;2.67;;;8.40;99.90;;;;;;4898627;29;20044;-92
2023/06/06 00:12:46;;;;;;;5.07;2.88;;;9.40;99.90;;;;;;4890666;29;20482;-91
2023/06/06 00:15:14;;;;;;;4.35;2.67;;;9.30;99.90;;;;;;4884977;29;20039;-92
2023/06/06 00:17:42;;;;;;;4.70;2.88;;;9.30;99.90;;;;;;4873682;29;20045;-92
2023/06/06 00:20:09;;;;;;;7.15;3.17;;;9.40;99.90;;;;;;4880800;29;20040;-92
2023/06/06 00:22:39;;;;;;;4.63;2.85;;;9.30;99.90;;;;;;4893519;29;20091;-92
2023/06/06 00:25:06;;;;;;;4.43;3.08;;;9.30;99.90;;;;;;4882568;29;20055;-92
2023/06/06 00:27:33;;;;;;;7.50;3.37;;;9.30;99.90;;;;;;4875910;29;20087;-93
2023/06/06 00:29:59;;;;;;;6.03;3.67;;;9.30;99.90;;;;;;4896197;29;20523;-92
2023/06/06 00:32:26;;;;;;;4.35;3.17;;;9.30;99.90;;;;;;4884035;29;20032;-94
2023/06/06 00:34:52;;;;;;;5.13;2.92;;;9.30;99.90;;;;;;4883338;29;20091;-92
2023/06/06 00:37:18;;;;;;;5.35;3.58;;;9.30;99.90;;;;;;4881908;29;20126;-91
2023/06/06 00:39:43;;;;;;;6.00;3.67;;;9.30;99.90;;;;;;4900274;29;20031;-93
2023/06/06 00:42:09;;;;;;;5.22;3.08;;;9.30;99.90;;;;;;4876312;29;20053;-93
2023/06/06 00:44:35;;;;;;;6.13;3.05;;;9.30;99.90;;;;;;4892710;29;20083;-91
2023/06/06 00:47:02;;;;;;;4.38;2.88;;;9.40;99.90;;;;;;4906047;29;20044;-92
2023/06/06 00:49:28;;;;;;;5.55;3.10;;;9.30;99.90;;;;;;4898290;29;20127;-92
2023/06/06 00:51:54;;;;;;;6.15;3.38;;;9.20;99.90;;;;;;4875103;29;20052;-92
2023/06/06 00:54:21;;;;;;;4.05;2.88;;;9.20;99.90;;;;;;4886199;29;20043;-93
2023/06/06 00:56:49;;;;;;;5.18;3.83;;;9.20;99.90;;;;;;4870131;29;20064;-93
2023/06/06 00:59:16;;;;;;;4.43;3.38;;;9.20;99.90;;;;;;4874381;29;20122;-92
2023/06/06 01:01:42;;;;;;;5.10;3.50;;;9.20;99.90;;;;;;4885827;29;20040;-92
2023/06/06 01:04:10;;;;;;;7.50;3.28;;;9.20;99.90;;;;;;4884957;29;20479;-93
2023/06/06 01:06:37;;;;;;;5.03;3.30;;;9.20;99.90;;;;;;4887109;29;20040;-92
2023/06/06 01:09:08;;;;;;;4.72;3.22;;;9.30;99.90;;;;;;4869757;29;20047;-92
2023/06/06 01:11:58;;;;;;;4.63;3.40;;;9.30;99.90;;;;;;4885198;29;20078;-93
2023/06/06 01:15:01;;;;;;;6.10;3.22;;;9.30;99.90;;;;;;4885242;29;20095;-92
2023/06/06 01:17:27;;;;;;;4.88;3.38;;;9.30;99.90;;;;;;4895341;29;20090;-92
2023/06/06 01:19:56;;;;;;;7.25;3.80;;;9.30;99.90;;;;;;4890982;29;20043;-92
2023/06/06 01:22:23;;;;;;;6.05;3.50;;;9.30;99.90;;;;;;4888987;29;20050;-92
2023/06/06 01:24:53;;;;;;;4.63;3.38;;;9.30;99.90;;;;;;4870243;29;20051;-92
2023/06/06 01:27:21;;;;;;;6.82;3.90;;;9.30;99.90;;;;;;4882976;29;20486;-92
2023/06/06 01:29:48;;;;;;;5.22;3.42;;;9.30;99.90;;;;;;4878523;29;20047;-91
2023/06/06 01:32:43;;;;;;;5.03;3.63;;;9.20;99.90;;;;;;4887021;29;20039;-92
2023/06/06 01:35:24;;;;;;;6.13;3.70;;;9.20;99.90;;;;;;4867523;29;20048;-92
2023/06/06 01:38:07;;;;;;;4.97;3.40;;;9.20;99.90;;;;;;4885863;29;20044;-92
2023/06/06 01:40:34;;;;;;;5.72;3.63;;;9.20;99.90;;;;;;4885564;29;20056;-92
2023/06/06 01:43:03;;;;;;;7.80;3.63;;;9.20;99.90;;;;;;4870702;29;20522;-91
2023/06/06 01:45:31;;;;;;;7.22;3.70;;;9.10;99.90;;;;;;4915733;29;20046;-92
2023/06/06 01:47:58;;;;;;;7.38;3.92;;;9.10;99.90;;;;;;4916171;29;20044;-92
2023/06/06 01:50:24;;;;;;;;;;;9.10;99.90;;;;;;4907265;29;20043;-91
2023/06/06 01:52:54;;;;;;;4.57;3.35;;;9.20;99.90;;;;;;4891334;29;19938;-92
2023/06/06 01:55:21;;;;;;;4.00;3.03;;;9.20;99.90;;;;;;4891736;29;20127;-93
2023/06/06 01:57:47;;;;;;;6.65;3.80;;;9.20;99.90;;;;;;4892078;29;20087;-93
2023/06/06 02:00:13;;;;;;;5.45;3.03;;;9.20;99.90;;;;;;4869901;29;20076;-92
2023/06/06 02:02:39;;;;;;;5.82;3.55;;;9.20;99.90;;;;;;4883625;29;20050;-92
2023/06/06 02:05:05;;;;;;;5.40;3.30;;;9.20;99.90;;;;;;4891509;29;20190;-94
2023/06/06 02:07:34;;;;;;;4.28;3.45;;;9.20;99.90;;;;;;4890326;29;20044;-92
2023/06/06 02:10:04;;;;;;;5.68;3.25;;;9.10;99.90;;;;;;4883739;29;20092;-93
2023/06/06 02:12:30;;;;;;;5.32;3.70;;;9.10;99.90;;;;;;4900061;29;20052;-94
2023/06/06 02:14:57;;;;;;;6.75;3.42;;;9.10;99.90;;;;;;4868643;29;20036;-93
2023/06/06 02:17:26;;;;;;;6.55;4.18;;;9.10;99.90;;;;;;4884146;29;20103;-93
2023/06/06 02:19:52;;;;;;;6.63;3.92;;;9.00;99.90;;;;;;4885901;29;20048;-92
2023/06/06 02:22:18;;;;;;;5.78;3.88;;;9.00;99.90;;;;;;4891837;29;20487;-93
2023/06/06 02:24:44;;;;;;;5.28;3.60;;;9.00;99.90;;;;;;4884319;29;20488;-93
2023/06/06 02:27:10;;;;;;;6.00;3.83;;;9.00;99.90;;;;;;4869318;29;20040;-92
2023/06/06 02:29:36;;;;;;;5.32;3.47;;;9.00;99.90;;;;;;4871444;29;20047;-93
2023/06/06 02:32:05;;;;;;;5.77;3.50;;;9.00;99.90;;;;;;4891656;29;20037;-91
2023/06/06 02:34:31;;;;;;;6.80;4.13;;;9.00;99.90;;;;;;4870361;29;20044;-91
2023/06/06 02:36:57;;;;;;;7.13;3.38;;;9.00;99.90;;;;;;4855303;29;20042;-92
2023/06/06 02:39:23;;;;;;;7.65;3.95;;;9.00;99.90;;;;;;4909140;29;20040;-92
2023/06/06 02:41:52;;;;;;;5.65;3.83;;;9.00;99.90;;;;;;4871706;29;20519;-94
2023/06/06 02:44:19;;;;;;;5.68;3.92;;;9.00;99.90;;;;;;4868909;29;20047;-92
2023/06/06 02:46:46;;;;;;;4.97;3.63;;;9.00;99.90;;;;;;4887824;29;20076;-92
2023/06/06 02:49:11;;;;;;;5.35;3.60;;;9.00;99.90;;;;;;4901144;29;20084;-93
2023/06/06 02:51:37;;;;;;;7.13;3.55;;;9.00;99.90;;;;;;4921402;29;20028;-93
2023/06/06 02:54:03;;;;;;;7.55;4.07;;;9.30;99.90;;;;;;4886082;29;20068;-93
2023/06/06 02:56:29;;;;;;;5.88;3.63;;;9.00;99.90;;;;;;4894562;29;20055;-93
2023/06/06 02:58:55;;;;;;;6.38;3.95;;;9.00;99.90;;;;;;4883156;29;20400;-93
2023/06/06 03:01:21;;;;;;;6.60;3.50;;;8.90;99.90;;;;;;4883506;29;20040;-94
2023/06/06 03:03:47;;;;;;;7.03;4.00;;;9.00;99.90;;;;;;4885272;29;20052;-94
2023/06/06 03:06:15;;;;;;;6.03;3.83;;;9.00;99.90;;;;;;4887683;29;20720;-92
2023/06/06 03:08:42;;;;;;;6.00;3.72;;;9.00;99.90;;;;;;4861032;29;20119;-92
2023/06/06 03:11:08;;;;;;;;;;;9.00;99.90;;;;;;4901353;29;20036;-93
2023/06/06 03:13:34;;;;;;;5.80;3.47;;;9.00;99.90;;;;;;4875042;29;19930;-92
2023/06/06 03:16:06;;;;;;;6.75;4.03;;;9.00;99.90;;;;;;4877559;29;20063;-92
2023/06/06 03:18:32;;;;;;;4.95;3.72;;;9.00;99.90;;;;;;4906587;29;20044;-95
2023/06/06 03:20:58;;;;;;;7.10;4.25;;;8.90;99.90;;;;;;4877583;29;20044;-94
2023/06/06 03:23:24;;;;;;;7.07;3.65;;;9.00;99.90;;;;;;4886148;29;20059;-94
2023/06/06 03:25:51;;;;;;;6.90;3.33;;;9.00;99.90;;;;;;4885577;29;20075;-93
2023/06/06 03:28:18;;;;;;;7.45;4.15;;;9.00;99.90;;;;;;4886232;29;20514;-94
2023/06/06 03:30:48;;;;;;;6.30;3.60;;;9.00;99.90;;;;;;4887128;29;20484;-93
2023/06/06 03:33:15;;;;;;;6.90;3.97;;;9.10;99.90;;;;;;4887378;29;20052;-94
2023/06/06 03:35:41;;;;;;;5.75;3.50;;;9.10;99.90;;;;;;4875252;29;20463;-94
2023/06/06 03:38:07;;;;;;;6.80;3.88;;;9.10;99.90;;;;;;4878603;29;20123;-94
2023/06/06 03:40:33;;;;;;;8.27;4.28;;;9.10;99.90;;;;;;4890493;29;20492;-95
2023/06/06 03:42:59;;;;;;;7.00;4.03;;;9.10;99.90;;;;;;4886243;29;20033;-94
2023/06/06 03:45:25;;;;;;;5.82;3.85;;;9.10;99.90;;;;;;4900541;29;20067;-94
2023/06/06 03:47:51;;;;;;;7.63;4.18;;;9.10;99.90;;;;;;4892041;29;20051;-93
2023/06/06 03:50:18;;;;;;;6.70;3.75;;;9.10;99.90;;;;;;4911690;29;20259;-92
2023/06/06 03:52:43;;;;;;;5.73;4.47;;;8.30;99.90;;;;;;4872264;29;20075;-94
2023/06/06 03:55:10;;;;;;;6.13;3.92;;;9.00;99.90;;;;;;4871473;29;20502;-94
2023/06/06 03:57:40;;;;;;;5.68;4.00;;;9.00;99.90;;;;;;4887459;29;20044;-93
2023/06/06 04:00:11;;;;;;;9.98;4.18;;;9.00;99.90;;;;;;4885901;29;20028;-94
2023/06/06 04:02:40;;;;;;;8.05;4.38;;;9.00;99.90;;;;;;4870945;29;20059;-94
2023/06/06 04:05:07;;;;;;;6.28;3.97;;;9.10;99.90;;;;;;4873411;29;20036;-93
2023/06/06 04:07:33;;;;;;;8.63;3.93;;;9.10;99.90;;;;;;4887924;29;20168;-95
2023/06/06 04:09:59;;;;;;;6.70;4.30;;;9.10;99.90;;;;;;4885827;29;20048;-94
2023/06/06 04:12:25;;;;;;;6.95;4.15;;;9.20;99.90;;;;;;4871478;29;20032;-94
2023/06/06 04:14:51;;;;;;;10.15;4.55;;;9.30;99.90;;;;;;4873694;29;20092;-93
2023/06/06 04:17:21;;;;;;;9.48;4.05;;;9.30;99.90;;;;;;4892162;29;20107;-94
2023/06/06 04:19:47;;;;;;;9.18;4.60;;;9.40;99.90;;;;;;4866417;29;20056;-94
2023/06/06 04:22:18;;;;;;;5.50;3.70;;;9.50;99.90;;;;;;4885012;29;20047;-94
2023/06/06 04:24:44;;;;;;;7.93;4.13;;;9.50;99.90;;;;;;4895866;29;20048;-93
2023/06/06 04:27:10;;;;;;;9.55;4.35;;;9.60;99.90;;;;;;4863723;29;20053;-94
2023/06/06 04:29:36;;;;;;;6.70;4.28;;;9.70;99.90;;;;;;4870538;29;20435;-94
2023/06/06 04:32:07;;;;;;;7.95;4.15;;;9.70;99.90;;;;;;4869773;29;20036;-94
2023/06/06 04:34:33;;;;;;;7.07;3.67;;;9.80;99.90;;;;;;4878729;29;20044;-93
2023/06/06 04:37:04;;;;;;;6.05;3.97;;;9.90;99.90;;;;;;4870865;29;20044;-94
2023/06/06 04:39:34;;;;;;;6.15;3.33;;;10.00;99.90;;;;;;4887654;29;20079;-93
2023/06/06 04:42:07;;;;;;;7.47;4.25;;;10.00;99.90;;;;;;4885143;29;20044;-94
2023/06/06 04:44:42;;;;;;;10.20;4.38;;;10.10;99.90;;;;;;4913719;29;20033;-94
2023/06/06 04:47:10;;;;;;;6.40;3.92;;;10.10;99.90;;;;;;4909310;29;20043;-94
2023/06/06 04:49:39;;;;;;;8.27;4.45;;;10.30;99.90;;;;;;4910837;29;20028;-94
2023/06/06 04:52:10;;;;;;;6.55;3.80;;;10.30;99.90;;;;;;4888361;29;20118;-92
2023/06/06 04:54:40;;;;;;;9.20;4.43;;;10.40;99.90;;;;;;4899742;29;20139;-92
2023/06/06 04:57:15;;;;;;;9.15;4.63;;;10.50;99.90;;;;;;4888553;29;20040;-93
2023/06/06 04:59:43;;;;;;;8.55;4.63;;;10.60;99.90;;;;;;4882312;29;20040;-93
2023/06/06 05:02:09;;;;;;;10.65;4.07;;;10.70;99.90;;;;;;4890380;29;20104;-92
2023/06/06 05:04:35;;;;;;;10.48;4.75;;;10.80;99.90;;;;;;4861171;29;20040;-93
2023/06/06 05:07:01;;;;;;;6.95;4.22;;;10.90;99.90;;;;;;4872843;29;20067;-92
2023/06/06 05:09:27;;;;;;;8.73;4.22;;;11.00;99.90;;;;;;4854745;29;20093;-92
2023/06/06 05:11:54;;;;;;;6.53;4.13;;;11.10;99.90;;;;;;4884799;29;20067;-91
2023/06/06 05:14:23;;;;;;;7.63;4.05;;;11.10;99.90;;;;;;4891761;29;20047;-91
2023/06/06 05:16:57;;;;;;;8.25;3.80;;;10.70;99.90;;;;;;4885684;29;20396;-92
2023/06/06 05:19:23;;;;;;;8.60;4.07;;;11.40;99.90;;;;;;4891679;29;20403;-91
2023/06/06 05:21:49;;;;;;;8.95;4.55;;;11.40;99.90;;;;;;4883722;29;20040;-94
2023/06/06 05:24:15;;;;;;;5.65;4.03;;;11.50;99.90;;;;;;4883644;29;20123;-93
2023/06/06 05:26:41;;;;;;;7.07;3.78;;;11.60;99.90;;;;;;4879659;29;20397;-93
2023/06/06 05:29:08;;;;;;;5.72;3.92;;;11.70;99.90;;;;;;4870627;29;20047;-94
2023/06/06 05:31:34;;;;;;;9.20;5.10;;;11.80;99.90;;;;;;4899281;29;20487;-91
2023/06/06 05:34:01;;;;;;;8.07;4.30;;;11.90;99.90;;;;;;4903765;29;20048;-91
2023/06/06 05:36:27;;;;;;;5.20;3.72;;;12.00;99.90;;;;;;4891664;29;20140;-91
2023/06/06 05:38:53;;;;;;;7.63;3.97;;;12.10;99.90;;;;;;4886505;29;20040;-92
2023/06/06 05:41:20;;;;;;;5.97;3.60;;;12.10;99.90;;;;;;4897892;29;20032;-91
2023/06/06 05:43:52;;;;;;;6.97;3.92;;;12.20;99.90;;;;;;4874899;29;20083;-93
2023/06/06 05:46:20;;;;;;;9.43;3.65;;;12.40;99.90;;;;;;4902180;29;20066;-90
2023/06/06 05:48:45;;;;;;;5.43;3.20;;;12.50;99.90;;;;;;4885139;29;20080;-90
2023/06/06 05:51:11;;;;;;;5.72;3.03;;;12.80;99.90;;;;;;4875200;29;20036;-91
2023/06/06 05:53:44;;;;;;;6.72;3.47;;;13.10;99.90;;;;;;4870267;29;20047;-93
2023/06/06 05:56:10;;;;;;;5.20;3.22;;;;;;;;;;4890376;29;20067;-91
2023/06/06 05:58:36;;;;;;;7.03;3.00;;;13.90;99.90;;;;;;4885904;29;20043;-91
2023/06/06 06:02:06;;;;;;;8.02;2.97;;;14.10;99.90;;;;;;4873495;29;20084;-91
2023/06/06 06:04:32;;;;;;;4.25;2.63;;;13.80;99.90;;;;;;4882486;29;20052;-92
2023/06/06 06:06:58;;;;;;;7.03;2.70;;;14.20;99.90;;;;;;4861072;29;20114;-90
2023/06/06 06:09:24;;;;;;;4.30;2.30;;;14.30;99.90;;;;;;4890762;29;20487;-91
2023/06/06 06:11:49;;;;;;;4.45;2.22;;;14.40;99.90;;;;;;4865161;29;20044;-91
2023/06/06 06:14:15;;;;;;;6.22;2.20;;;14.40;99.90;;;;;;4855499;29;20427;-92
2023/06/06 06:16:41;;;;;;;4.57;2.58;;;14.70;99.90;;;;;;4852061;29;20040;-93
2023/06/06 06:19:07;;;;;;;4.03;2.42;;;15.10;99.90;;;;;;4875024;29;20045;-92
2023/06/06 06:21:33;;;;;;;4.32;2.13;;;15.40;99.90;;;;;;4868792;29;20047;-91
2023/06/06 06:23:59;;;;;;;5.00;1.90;;;15.30;99.90;;;;;;4867924;29;20051;-92
2023/06/06 06:26:25;;;;;;;4.57;2.17;;;15.20;99.90;;;;;;4899556;29;20511;-91
2023/06/06 06:28:54;;;;;;;6.23;2.17;;;15.10;99.90;;;;;;4878249;29;20067;-91
2023/06/06 06:31:20;;;;;;;5.15;2.45;;;15.00;99.90;;;;;;4863502;29;20472;-91
2023/06/06 06:33:46;;;;;;;4.25;1.98;;;14.90;99.90;;;;;;4867853;29;20048;-92
2023/06/06 06:36:11;;;;;;;5.57;2.28;;;14.80;99.90;;;;;;4876773;29;20035;-90
2023/06/06 06:38:37;;;;;;;4.70;1.90;;;14.80;99.90;;;;;;4876733;29;20025;-96
2023/06/06 06:41:04;;;;;;;5.10;2.40;;;14.80;99.90;;;;;;4879769;29;20133;-95
2023/06/06 06:43:30;;;;;;;4.70;2.60;;;14.80;99.90;;;;;;4883740;29;20496;-95
2023/06/06 06:45:55;;;;;;;5.28;2.55;;;14.80;99.90;;;;;;4867588;29;20064;-95
2023/06/06 06:48:21;;;;;;;5.75;2.08;;;14.80;99.90;;;;;;4869481;29;20064;-95
2023/06/06 06:50:47;;;;;;;5.68;1.92;;;14.90;99.90;;;;;;4869314;29;20072;-95
2023/06/06 06:53:13;;;;;;;4.68;2.30;;;15.00;99.90;;;;;;4869879;29;20115;-95
2023/06/06 06:55:44;;;;;;;6.05;2.28;;;15.40;99.90;;;;;;4865992;29;20504;-94
2023/06/06 06:58:13;;;;;;;5.40;2.30;;;15.70;99.90;;;;;;4853500;29;20127;-96
2023/06/06 07:00:42;;;;;;;4.93;2.30;;;16.30;99.90;;;;;;4850827;29;20105;-96
2023/06/06 07:03:08;;;;;;;6.63;2.50;;;17.40;99.90;;;;;;4845850;29;20072;-96
2023/06/06 07:05:34;;;;;;;5.28;2.13;;;18.30;99.90;;;;;;4877938;29;20044;-95
2023/06/06 07:08:00;;;;;;;3.58;2.20;;;19.30;99.90;;;;;;4871823;29;20044;-96
2023/06/06 07:10:28;;;;;;;4.32;1.70;;;20.20;99.90;;;;;;4856883;29;20044;-96
2023/06/06 07:12:54;;;;;;;4.50;2.20;;;20.70;99.90;;;;;;4870155;29;20036;-96
2023/06/06 07:15:21;;;;;;;5.32;2.72;;;20.90;99.90;;;;;;4859288;29;20042;-96
2023/06/06 07:17:49;;;;;;;4.97;2.22;;;21.10;99.90;;;;;;4871484;29;20131;-96
2023/06/06 07:20:15;;;;;;;4.03;1.60;;;21.30;99.90;;;;;;4871686;29;20049;-95
2023/06/06 07:22:41;;;;;;;5.17;1.80;;;21.50;99.90;;;;;;4848554;29;20049;-96
2023/06/06 07:25:08;;;;;;;5.90;1.92;;;21.90;99.90;;;;;;4861420;29;20096;-96
2023/06/06 07:27:36;;;;;;;4.38;1.77;;;22.30;99.90;;;;;;4863296;29;21122;-96
2023/06/06 07:30:18;;;;;;;2.33;1.70;;;22.60;99.90;;;;;;4861326;29;20067;-93
2023/06/06 07:32:46;;;;;;;3.88;2.00;;;23.20;99.90;;;;;;4885341;29;20050;-91
2023/06/06 07:35:14;;;;;;;2.83;1.73;;;23.20;99.90;;;;;;4881670;29;20693;-91
2023/06/06 07:37:40;;;;;;;3.35;1.60;;;23.30;99.90;;;;;;4853757;29;20040;-91
2023/06/06 07:40:11;;;;;;;4.93;1.98;;;23.40;99.90;;;;;;4852815;29;20045;-92
2023/06/06 07:42:39;;;;;;;3.75;1.65;;;23.00;99.90;;;;;;4865115;29;20038;-92
2023/06/06 07:45:05;;;;;;;3.70;1.80;;;22.60;99.90;;;;;;4902206;29;20055;-89
2023/06/06 07:47:30;;;;;;;4.53;1.67;;;22.30;99.90;;;;;;4887683;29;20095;-91
2023/06/06 07:49:59;;;;;;;3.78;1.83;;;22.20;99.90;;;;;;4904837;29;20036;-90
2023/06/06 07:52:25;;;;;;;4.18;1.70;;;22.20;99.90;;;;;;4889254;29;20035;-90
2023/06/06 07:54:51;;;;;;;4.82;1.98;;;22.30;99.90;;;;;;4902064;29;20040;-92
2023/06/06 07:57:19;;;;;;;8.55;2.13;;;22.40;99.90;;;;;;4901465;29;20253;-92
2023/06/06 07:59:45;;;;;;;4.47;2.35;;;22.40;99.90;;;;;;4884874;29;20048;-90
2023/06/06 08:02:14;;;;;;;4.10;2.00;;;22.40;99.90;;;;;;4882919;29;20094;-91
2023/06/06 08:04:45;;;;;;;4.10;2.10;;;21.90;99.90;;;;;;4889578;29;20054;-93
2023/06/06 08:07:12;;;;;;;3.85;2.20;;;21.20;99.90;;;;;;4885802;29;20075;-90
2023/06/06 08:09:37;;;;;;;4.53;2.83;;;20.50;99.90;;;;;;4909747;29;20032;-92
2023/06/06 08:12:05;;;;;;;5.45;2.50;;;19.60;99.90;;;;;;4892632;29;20106;-91
2023/06/06 08:14:34;;;;;;;4.50;2.50;;;19.30;99.90;;;;;;4885373;29;20098;-91
2023/06/06 08:17:00;;;;;;;4.38;2.67;;;19.00;99.90;;;;;;4881230;29;20078;-91
2023/06/06 08:19:26;;;;;;;5.82;2.58;;;18.80;99.90;;;;;;4885717;29;20044;-91
2023/06/06 08:21:52;;;;;;;7.50;2.67;;;18.70;99.90;;;;;;4880302;29;20043;-92
2023/06/06 08:24:18;;;;;;;3.80;2.70;;;18.70;99.90;;;;;;4878707;29;20482;-91
2023/06/06 08:26:43;;;;;;;4.20;2.28;;;18.80;99.90;;;;;;4886047;29;20499;-91
2023/06/06 08:29:09;;;;;;;4.60;2.72;;;19.10;99.90;;;;;;4877244;29;20041;-91
2023/06/06 08:31:35;;;;;;;3.53;2.40;;;19.20;99.90;;;;;;4887692;29;20071;-91
2023/06/06 08:34:00;;;;;;;3.78;2.28;;;19.20;99.90;;;;;;4883322;29;20036;-91
2023/06/06 08:36:26;;;;;;;3.72;2.35;;;19.20;99.90;;;;;;4853339;29;20032;-92
2023/06/06 08:38:52;;;;;;;3.90;2.25;;;19.30;99.90;;;;;;4879134;29;21627;-93
2023/06/06 08:41:18;;;;;;;6.85;2.60;;;19.20;99.90;;;;;;4876251;29;20048;-91
2023/06/06 08:43:46;;;;;;;5.07;2.17;;;19.10;99.90;;;;;;4887900;29;20044;-92
2023/06/06 08:46:13;;;;;;;6.65;2.85;;;19.10;99.90;;;;;;4890255;29;20066;-92
2023/06/06 08:48:47;;;;;;;4.55;2.70;;;19.20;99.90;;;;;;4884136;29;20518;-91
2023/06/06 08:51:13;;;;;;;4.68;2.22;;;19.30;99.90;;;;;;4884168;29;20035;-91
2023/06/06 08:53:41;;;;;;;5.60;2.53;;;19.80;99.90;;;;;;4885520;29;20047;-91
2023/06/06 08:56:08;;;;;;;6.75;2.80;;;20.20;99.90;;;;;;4894884;29;20428;-91
2023/06/06 08:58:36;;;;;;;6.18;2.45;;;20.50;99.90;;;;;;4883614;29;20105;-92
2023/06/06 09:01:02;;;;;;;4.53;2.38;;;20.60;99.90;;;;;;4927523;29;20057;-92
2023/06/06 09:03:31;;;;;;;5.97;3.20;;;20.10;99.90;;;;;;4907424;29;20027;-90
2023/06/06 09:06:00;;;;;;;4.43;2.70;;;19.70;99.90;;;;;;4913331;29;20043;-90
2023/06/06 09:08:27;;;;;;;4.15;2.67;;;19.90;99.90;;;;;;4910428;29;20037;-90
2023/06/06 09:10:53;;;;;;;4.43;2.13;;;20.10;99.90;;;;;;4878785;29;20054;-91
2023/06/06 09:13:19;;;;;;;4.65;2.50;;;20.30;99.90;;;;;;4855273;29;20123;-90
2023/06/06 09:15:46;;;;;;;5.90;3.33;;;20.50;99.90;;;;;;4893037;29;20111;-91
2023/06/06 09:18:13;;;;;;;4.50;2.95;;;20.50;99.90;;;;;;4885036;29;20651;-92
2023/06/06 09:20:39;;;;;;;;;;;20.40;99.90;;;;;;4893567;29;20054;-91
2023/06/06 09:23:12;;;;;;;3.22;2.50;;;20.30;99.90;;;;;;4884454;29;19919;-91
2023/06/06 09:25:45;;;;;;;3.88;2.88;;;20.20;99.90;;;;;;4892462;29;20048;-91
2023/06/06 09:28:10;;;;;;;5.65;3.05;;;20.10;99.90;;;;;;4905318;29;20040;-91
2023/06/06 09:30:37;;;;;;;5.05;3.13;;;19.80;99.90;;;;;;4872055;29;20440;-95
2023/06/06 09:33:04;;;;;;;5.05;3.25;;;19.50;99.90;;;;;;4864910;29;20037;-95
2023/06/06 09:35:31;;;;;;;5.07;3.10;;;19.50;99.90;;;;;;4884943;29;20131;-96
2023/06/06 09:38:03;;;;;;;6.15;3.00;;;19.40;99.90;;;;;;4900838;29;20508;-96
2023/06/06 09:40:30;;;;;;;6.13;3.75;;;19.40;99.90;;;;;;4883386;29;20040;-95
2023/06/06 09:42:57;;;;;;;5.50;2.97;;;19.30;99.90;;;;;;4879936;29;20040;-95
2023/06/06 09:45:23;;;;;;;5.05;2.80;;;19.30;99.90;;;;;;4884394;29;20491;-95
2023/06/06 09:47:49;;;;;;;5.90;2.78;;;19.30;99.90;;;;;;4876532;29;20087;-95
2023/06/06 09:50:16;;;;;;;4.93;2.92;;;19.20;99.90;;;;;;4886842;29;20071;-96
2023/06/06 09:52:42;;;;;;;4.13;2.70;;;19.30;99.90;;;;;;4885313;29;20051;-96
2023/06/06 09:55:10;;;;;;;5.60;2.78;;;19.30;99.90;;;;;;4885426;29;20056;-95
2023/06/06 09:57:37;;;;;;;5.28;2.65;;;19.30;99.90;;;;;;4870557;29;20040;-96
2023/06/06 10:00:14;;;;;;;;;;;19.30;99.90;;;;;;4869700;29;20052;-96
2023/06/06 10:02:42;;;;;;;4.78;2.47;;;19.30;99.90;;;;;;4885297;29;20144;-96
2023/06/06 10:05:13;;;;;;;7.05;2.88;;;19.40;99.90;;;;;;4899053;29;20044;-95
2023/06/06 10:07:41;;;;;;;5.88;2.80;;;19.50;99.90;;;;;;4891165;29;20055;-94
2023/06/06 10:10:19;;;;;;;5.28;2.70;;;19.60;99.90;;;;;;4885144;29;20040;-95
2023/06/06 10:12:45;;;;;;;4.78;3.08;;;19.70;99.90;;;;;;4882297;29;20078;-95
2023/06/06 10:15:12;;;;;;;4.90;2.55;;;19.70;99.90;;;;;;4904591;29;20076;-96
2023/06/06 10:17:39;;;;;;;4.35;2.70;;;19.70;99.90;;;;;;4905778;29;20022;-96
2023/06/06 10:20:07;;;;;;;5.13;2.40;;;19.80;99.90;;;;;;4923758;29;20068;-93
2023/06/06 10:22:35;;;;;;;5.68;3.00;;;19.70;99.90;;;;;;4893747;29;20256;-95
2023/06/06 10:25:07;;;;;;;4.18;2.50;;;19.70;99.90;;;;;;4908485;29;20047;-96
2023/06/06 10:27:55;;;;;;;4.65;2.60;;;19.50;99.90;;;;;;4907271;29;20104;-96
2023/06/06 10:30:37;;;;;;;3.40;2.17;;;19.50;99.90;;;;;;4911735;29;20055;-96
2023/06/06 10:33:17;;;;;;;3.22;2.10;;;19.30;99.90;;;;;;4892995;29;20814;-95
2023/06/06 10:35:46;;;;;;;4.15;2.25;;;19.20;99.90;;;;;;4902200;29;20480;-96
2023/06/06 10:38:13;;;;;;;3.22;2.22;;;19.20;99.90;;;;;;4895202;29;20510;-96
2023/06/06 10:40:55;;;;;;;4.00;2.28;;;19.10;99.90;;;;;;4889934;29;20063;-95
2023/06/06 10:43:41;;;;;;;4.55;2.35;;;19.20;99.90;;;;;;4872730;29;20036;-95
2023/06/06 10:46:07;;;;;;;4.47;2.65;;;19.30;99.90;;;;;;4901834;29;20056;-96
2023/06/06 10:48:37;;;;;;;5.80;2.57;;;19.50;99.90;;;;;;4872957;29;20047;-96
2023/06/06 10:51:04;;;;;;;3.63;2.55;;;19.50;99.90;;;;;;4903586;29;20465;-95
2023/06/06 10:53:29;;;;;;;4.63;2.33;;;19.40;99.90;;;;;;4888053;29;20063;-95
2023/06/06 10:55:55;;;;;;;3.45;2.60;;;19.50;99.90;;;;;;4851644;29;20056;-96
2023/06/06 10:58:26;;;;;;;6.22;2.25;;;19.30;99.90;;;;;;4889674;29;20531;-96
2023/06/06 11:01:04;;;;;;;4.30;2.58;;;19.10;99.90;;;;;;4881615;29;20042;-96
2023/06/06 11:03:38;;;;;;;5.18;2.40;;;19.00;99.90;;;;;;4910865;29;20038;-96
2023/06/06 11:06:15;;;;;;;4.03;2.10;;;19.00;99.90;;;;;;4873983;29;20051;-95
2023/06/06 11:08:48;;;;;;;4.15;2.40;;;19.10;99.90;;;;;;4885681;29;20040;-96
2023/06/06 11:11:19;;;;;;;4.95;2.78;;;19.20;99.90;;;;;;4891637;29;20047;-96
2023/06/06 11:14:09;;;;;;;3.55;2.40;;;19.30;99.90;;;;;;4871601;29;20054;-96
2023/06/06 11:16:40;;;;;;;3.83;2.30;;;19.20;99.90;;;;;;4897775;29;20123;-96
2023/06/06 11:19:08;;;;;;;4.03;2.30;;;19.20;99.90;;;;;;4902762;29;20195;-96
2023/06/06 11:21:41;;;;;;;4.95;2.45;;;19.20;99.90;;;;;;4873099;29;20040;-96
2023/06/06 11:24:08;;;;;;;6.13;2.50;;;19.30;99.90;;;;;;4887224;29;20067;-96
2023/06/06 11:26:35;;;;;;;6.13;2.50;;;19.30;99.90;;;;;;4875745;29;20059;-96
2023/06/06 11:29:02;;;;;;;6.28;2.40;;;19.30;99.90;;;;;;4902765;29;20163;-96
2023/06/06 11:31:30;;;;;;;4.53;2.38;;;19.20;99.90;;;;;;4886051;29;20040;-96
2023/06/06 11:34:10;;;;;;;4.20;2.35;;;19.30;99.90;;;;;;4882955;29;20043;-96
2023/06/06 11:36:39;;;;;;;3.75;2.50;;;19.00;99.90;;;;;;4851983;29;20043;-96
2023/06/06 11:39:07;;;;;;;6.38;2.65;;;19.00;99.90;;;;;;4877551;29;20067;-96
2023/06/06 11:41:40;;;;;;;5.97;2.70;;;18.80;99.90;;;;;;4894294;29;20035;-96
2023/06/06 11:44:06;;;;;;;7.32;2.78;;;18.60;99.90;;;;;;4910679;29;20545;-96
2023/06/06 11:46:51;;;;;;;5.97;2.50;;;18.60;99.90;;;;;;4886356;29;20088;-96
2023/06/06 11:49:19;;;;;;;5.28;2.13;;;18.70;99.90;;;;;;4910549;29;20032;-96
2023/06/06 11:51:59;;;;;;;4.30;2.50;;;18.70;99.90;;;;;;4907315;29;20112;-96
2023/06/06 11:54:27;;;;;;;3.60;2.33;;;18.70;99.90;;;;;;4914448;29;20473;-96
2023/06/06 11:56:56;;;;;;;6.82;2.88;;;18.70;99.90;;;;;;4867666;29;20071;-95
2023/06/06 11:59:22;;;;;;;6.90;3.03;;;18.70;99.90;;;;;;4886758;29;20048;-96
2023/06/06 12:01:58;;;;;;;4.22;2.00;;;18.80;99.90;;;;;;4886484;29;20048;-96
2023/06/06 12:04:25;;;;;;;5.95;2.90;;;18.70;99.90;;;;;;4887109;29;20095;-96
2023/06/06 12:06:57;;;;;;;8.55;2.47;;;18.60;99.90;;;;;;4886093;29;20641;-96
2023/06/06 12:09:24;;;;;;;5.57;2.97;;;18.40;99.90;;;;;;4892957;29;20052;-96
2023/06/06 12:12:01;;;;;;;5.60;2.88;;;18.40;99.90;;;;;;4889247;29;20032;-96
2023/06/06 12:14:28;;;;;;;4.60;2.97;;;18.40;99.90;;;;;;4881729;29;20064;-96
2023/06/06 12:17:01;;;;;;;;;;;18.30;99.90;;;;;;4892089;29;20032;-96
2023/06/06 12:19:27;;;;;;;4.85;2.85;;;18.20;99.90;;;;;;4882745;29;19919;-96
2023/06/06 12:21:53;;;;;;;5.32;2.60;;;18.20;99.90;;;;;;4887313;29;20503;-96
2023/06/06 12:24:24;;;;;;;7.88;2.75;;;18.10;99.90;;;;;;4874169;29;20066;-96
2023/06/06 12:26:53;;;;;;;3.75;2.50;;;18.00;99.90;;;;;;4901350;29;20510;-96
2023/06/06 12:29:26;;;;;;;5.45;2.67;;;17.90;99.90;;;;;;4870530;29;20154;-96
2023/06/06 12:32:14;;;;;;;5.35;2.50;;;17.90;99.90;;;;;;4888906;29;20051;-96
2023/06/06 12:34:59;;;;;;;6.68;2.95;;;17.90;99.90;;;;;;4888359;29;20067;-96
2023/06/06 12:37:40;;;;;;;5.85;2.30;;;17.90;99.90;;;;;;4909036;29;20868;-96
2023/06/06 12:40:14;;;;;;;5.68;2.80;;;17.70;99.90;;;;;;4882374;29;20040;-95
2023/06/06 12:42:41;;;;;;;5.05;2.55;;;17.90;99.90;;;;;;4878184;29;20051;-95
2023/06/06 12:45:07;;;;;;;5.03;2.42;;;17.80;99.90;;;;;;4883538;29;20496;-96
2023/06/06 12:47:36;;;;;;;6.45;2.70;;;17.80;99.90;;;;;;4886797;29;20063;-96
2023/06/06 12:50:01;;;;;;;4.28;2.42;;;17.80;99.90;;;;;;4877793;29;20055;-96
2023/06/06 12:52:27;;;;;;;5.75;3.03;;;17.70;99.90;;;;;;4856212;29;20040;-96
2023/06/06 12:54:53;;;;;;;5.90;2.78;;;17.60;99.90;;;;;;4881681;29;20067;-95
2023/06/06 12:57:19;;;;;;;5.95;2.35;;;17.70;99.90;;;;;;4897577;29;20040;-96
2023/06/06 12:59:46;;;;;;;4.50;2.50;;;17.70;99.90;;;;;;4908155;29;20044;-96